ADDS METAR Data INFO
IDs: Format: Raw Decoded Include TAF

Data at: 1240 UTC 25 Jul 2017

KDRT 251153Z AUTO 10008KT 10SM CLR 27/21 A3001 RMK AO2 SLP143 T02670206 10311 20267 52014
KDRT 251053Z AUTO 10008KT 10SM CLR 27/19 A2999 RMK AO2 SLP137 T02720194
KDRT 250953Z AUTO 11007KT 10SM CLR 28/19 A2998 RMK AO2 SLP133 T02780194
KDRT 250853Z AUTO 10007KT 10SM CLR 29/19 A2997 RMK AO2 SLP128 T02890189 53009
KDRT 250753Z AUTO 11009KT 10SM CLR 29/18 A2995 RMK AO2 SLP122 T02940183
KDRT 250653Z AUTO 10008KT 10SM CLR 30/17 A2995 RMK AO2 SLP122 T03000167
KDRT 250553Z AUTO 11008KT 10SM CLR 31/16 A2994 RMK AO2 SLP119 T03110156 10378 20311 403890267 53016
KDRT 250453Z AUTO 11008KT 10SM CLR 32/14 A2992 RMK AO2 SLP114 T03170144
KDRT 250353Z AUTO 10006KT 10SM CLR 32/12 A2990 RMK AO2 SLP107 T03170122
KDRT 250253Z AUTO 09006KT 10SM CLR 33/12 A2989 RMK AO2 SLP104 T03330117 53014
KDRT 250153Z AUTO 09007KT 10SM CLR 35/13 A2988 RMK AO2 SLP098 T03500128
KDRT 250053Z AUTO 10011KT 10SM CLR 37/12 A2986 RMK AO2 SLP093 T03670122
KDRT 242353Z AUTO 11010G15KT 10SM CLR 38/13 A2985 RMK AO2 SLP088 T03780128 10389 20339 55007
KDRT 242253Z AUTO 10009KT 10SM CLR 38/15 A2984 RMK AO2 SLP085 T03830150
KDRT 242153Z AUTO 12009G18KT 10SM FEW080 39/17 A2984 RMK AO2 SLP084 T03890167
KDRT 242053Z AUTO 17011G17KT 10SM BKN070 BKN090 38/18 A2987 RMK AO2 SLP095 T03830183 58026
KDRT 241953Z AUTO 17011KT 10SM CLR 37/17 A2991 RMK AO2 SLP109 T03720167
KDRT 241853Z AUTO 13007KT 100V170 10SM CLR 36/18 A2993 RMK AO2 SLP117 T03560183
KDRT 241753Z AUTO 16010KT 10SM CLR 34/21 A2995 RMK AO2 SLP123 T03390211 10339 20272 58006
KDRT 241653Z AUTO 12007KT 10SM CLR 32/22 A2996 RMK AO2 SLP127 T03170222
KDRT 241553Z AUTO 15010KT 10SM CLR 30/22 A2996 RMK AO2 SLP127 T03000222
KDRT 241453Z AUTO 12011KT 10SM FEW034 28/22 A2997 RMK AO2 SLP130 T02780217 51015
KDRT 241353Z AUTO 10007KT 10SM CLR 27/21 A2996 RMK AO2 SLP129 T02720206
KDRT 241253Z AUTO 10007KT 10SM CLR 27/19 A2995 RMK AO2 SLP124 T02720194
KDRT 241153Z AUTO 10008KT 10SM CLR 27/19 A2992 RMK AO2 SLP114 T02720189 10283 20267 53009
KDRT 241053Z AUTO 10007KT 10SM CLR 28/19 A2991 RMK AO2 SLP108 T02780189
KDRT 240953Z AUTO 07003KT 10SM CLR 27/19 A2990 RMK AO2 SLP103 T02720189
KDRT 240853Z AUTO 11003KT 10SM CLR 28/19 A2989 RMK AO2 SLP103 T02780194 50002
KDRT 240753Z AUTO 00000KT 10SM CLR 27/20 A2990 RMK AO2 SLP106 T02720200
KDRT 240653Z AUTO 00000KT 10SM CLR 28/20 A2990 RMK AO2 SLP106 T02780200
KDRT 240553Z AUTO 00000KT 10SM CLR 27/19 A2989 RMK AO2 SLP102 T02720194 10383 20272 403940261 50006
KDRT 240453Z AUTO 00000KT 10SM CLR 29/19 A2990 RMK AO2 SLP104 T02890194
KDRT 240353Z AUTO 25004KT 10SM CLR 29/19 A2990 RMK AO2 SLP108 T02940189
KDRT 240253Z AUTO 03009KT 10SM CLR 29/19 A2987 RMK AO2 SLP096 T02940189 51024
KDRT 240153Z AUTO 05015G24KT 10SM CLR 29/19 A2985 RMK AO2 PK WND 03028/0101 SLP092 T02890194
KDRT 240053Z AUTO 03019G32KT 10SM BKN100 31/19 A2985 RMK AO2 PK WND 04032/0044 SLP091 T03110194